Time;durP1;ratioP1;P1;durP2;ratioP2;P2;SDS_P1;SDS_P2;PMS_P1;PMS_P2;Temp;Humidity;BMP_temperature;BMP_pressure;BME280_temperature;BME280_humidity;BME280_pressure;Samples;Min_cycle;Max_cycle;Signal;HPM_P1;HPM_P2
2022/11/12 00:00:53;;;;;;;2.50;0.20;;;;;;;20.52;100.00;100762.72;7393011;19;20074;-55
2022/11/12 00:03:38;;;;;;;2.80;0.85;;;;;;;20.75;100.00;100764.13;7394812;19;20022;-56
2022/11/12 00:06:22;;;;;;;0.45;0.10;;;;;;;20.96;100.00;100768.09;7391450;19;20014;-55
2022/11/12 00:09:07;;;;;;;1.17;0.68;;;;;;;21.00;100.00;100768.63;7391399;19;20025;-55
2022/11/12 00:11:51;;;;;;;1.33;0.60;;;;;;;21.06;100.00;100777.84;7394908;19;20014;-56
2022/11/12 00:14:36;;;;;;;2.97;0.50;;;;;;;21.03;100.00;100778.91;7391779;19;20019;-55
2022/11/12 00:17:21;;;;;;;3.25;0.82;;;;;;;21.05;100.00;100764.97;7390002;19;20015;-55
2022/11/12 00:20:06;;;;;;;2.60;1.00;;;;;;;21.06;100.00;100775.03;7391225;19;20078;-55
2022/11/12 00:22:51;;;;;;;0.40;0.32;;;;;;;20.87;100.00;100779.00;7390506;19;20014;-55
2022/11/12 00:25:35;;;;;;;2.08;0.43;;;;;;;21.20;100.00;100786.53;7390908;19;20010;-55
2022/11/12 00:28:20;;;;;;;3.80;0.47;;;;;;;21.26;100.00;100790.06;7395028;19;20018;-56
2022/11/12 00:31:10;;;;;;;0.75;0.40;;;;;;;21.18;100.00;100791.94;7392474;19;20010;-55
2022/11/12 00:33:55;;;;;;;9.73;1.50;;;;;;;20.57;100.00;100786.63;7393476;19;20014;-56
2022/11/12 00:36:39;;;;;;;11.48;0.63;;;;;;;20.50;100.00;100793.63;7388003;19;20027;-56
2022/11/12 00:39:24;;;;;;;1.08;0.43;;;;;;;20.59;100.00;100789.72;7390900;19;20013;-55
2022/11/12 00:42:08;;;;;;;0.93;0.50;;;;;;;20.76;100.00;100794.00;7394696;19;20333;-55
2022/11/12 00:44:53;;;;;;;0.30;0.10;;;;;;;20.65;100.00;100781.97;7391378;19;20003;-56
2022/11/12 00:47:38;;;;;;;0.55;0.38;;;;;;;20.88;100.00;100781.28;7390270;19;20114;-55
2022/11/12 00:50:22;;;;;;;2.33;0.30;;;;;;;20.75;100.00;100786.00;7390422;19;20471;-55
2022/11/12 00:53:07;;;;;;;0.75;0.32;;;;;;;20.83;100.00;100787.00;7388095;19;20547;-55
2022/11/12 00:55:51;;;;;;;0.60;0.13;;;;;;;20.60;100.00;100789.19;7389294;19;20015;-55
2022/11/12 00:58:36;;;;;;;0.20;0.00;;;;;;;20.65;100.00;100791.22;7388562;19;20044;-55
2022/11/12 01:01:21;;;;;;;3.15;1.20;;;;;;;20.39;100.00;100796.50;7391326;19;20487;-55
2022/11/12 01:04:07;;;;;;;3.50;0.45;;;;;;;20.50;100.00;100796.44;7393173;19;20090;-55
2022/11/12 01:06:51;;;;;;;5.10;0.70;;;;;;;20.86;100.00;100786.72;7389312;19;20014;-55
2022/11/12 01:09:36;;;;;;;0.98;0.40;;;;;;;21.32;100.00;100782.28;7388100;19;20011;-55
2022/11/12 01:12:21;;;;;;;2.17;1.15;;;;;;;21.45;100.00;100797.38;7394101;19;20032;-55
2022/11/12 01:15:07;;;;;;;6.13;1.38;;;;;;;21.56;100.00;100797.28;7389990;19;20018;-55
2022/11/12 01:17:51;;;;;;;1.65;0.55;;;;;;;21.86;100.00;100798.06;7389024;19;20505;-55
2022/11/12 01:20:38;;;;;;;0.22;0.22;;;;;;;21.86;100.00;100797.28;7390235;19;20034;-55
2022/11/12 01:23:22;;;;;;;2.70;0.35;;;;;;;21.98;100.00;100804.38;7389589;19;20070;-56
2022/11/12 01:26:13;;;;;;;2.17;1.98;;;;;;;21.82;100.00;100810.97;7387759;19;20021;-55
2022/11/12 01:28:57;;;;;;;1.90;0.45;;;;;;;21.75;100.00;100803.03;7389081;19;20006;-55
2022/11/12 01:31:42;;;;;;;2.95;0.43;;;;;;;21.99;100.00;100794.56;7391590;19;20006;-56
2022/11/12 01:34:27;;;;;;;2.38;0.68;;;;;;;21.87;100.00;100798.81;7390973;19;20018;-55
2022/11/12 01:37:12;;;;;;;7.00;0.75;;;;;;;21.90;100.00;100797.75;7387980;19;20010;-56
2022/11/12 01:39:56;;;;;;;0.85;0.80;;;;;;;21.77;100.00;100794.75;7388146;19;20459;-56
2022/11/12 01:42:41;;;;;;;4.82;0.63;;;;;;;21.92;100.00;100795.16;7393316;19;20006;-56
2022/11/12 01:45:25;;;;;;;1.58;0.70;;;;;;;22.09;100.00;100792.88;7390062;19;20037;-55
2022/11/12 01:48:36;;;;;;;1.85;0.50;;;;;;;22.01;100.00;100796.84;7388528;19;20015;-56
2022/11/12 01:51:24;;;;;;;2.95;1.10;;;;;;;21.98;100.00;100795.88;7390057;19;20015;-55
2022/11/12 01:54:14;;;;;;;2.90;0.70;;;;;;;21.88;100.00;100792.63;7388133;19;20011;-55
2022/11/12 01:57:00;;;;;;;1.23;0.85;;;;;;;21.86;100.00;100808.63;7387574;19;20082;-55
2022/11/12 01:59:49;;;;;;;2.65;0.55;;;;;;;21.87;100.00;100798.81;7387736;19;20463;-55
2022/11/12 02:02:35;;;;;;;10.02;0.85;;;;;;;21.74;100.00;100801.50;7392782;19;20015;-55
2022/11/12 02:05:22;;;;;;;0.80;0.60;;;;;;;21.71;100.00;100805.38;7395818;19;20502;-55
2022/11/12 02:08:09;;;;;;;2.05;0.55;;;;;;;21.83;100.00;100795.50;7394947;19;20017;-55
2022/11/12 02:10:54;;;;;;;5.20;0.85;;;;;;;21.53;100.00;100800.41;7396657;19;20010;-55
2022/11/12 02:13:57;;;;;;;2.65;0.70;;;;;;;21.50;100.00;100792.97;7398121;19;20010;-55
2022/11/12 02:16:44;;;;;;;5.68;0.73;;;;;;;21.41;100.00;100796.13;7400073;19;20031;-55
2022/11/12 02:19:29;;;;;;;2.17;0.80;;;;;;;21.26;100.00;100796.50;7394921;19;20018;-55
2022/11/12 02:22:14;;;;;;;0.43;0.43;;;;;;;21.12;100.00;100775.75;7398741;19;20014;-55
2022/11/12 02:24:58;;;;;;;1.58;0.80;;;;;;;20.93;100.00;100774.84;7394358;19;20448;-55
2022/11/12 02:27:44;;;;;;;7.32;0.80;;;;;;;20.75;100.00;100775.47;7394237;19;20011;-54
2022/11/12 02:30:34;;;;;;;1.60;0.85;;;;;;;20.69;100.00;100763.41;7394081;19;20014;-55
2022/11/12 02:33:19;;;;;;;2.83;0.82;;;;;;;20.53;100.00;100764.25;7396534;19;20025;-55
2022/11/12 02:36:04;;;;;;;1.05;0.75;;;;;;;20.42;100.00;100764.34;7394535;19;20070;-55
2022/11/12 02:38:49;;;;;;;3.17;0.90;;;;;;;20.29;100.00;100759.22;7393296;19;20019;-55
2022/11/12 02:41:34;;;;;;;0.65;0.40;;;;;;;20.30;100.00;100765.66;7396285;19;20010;-56
2022/11/12 02:44:19;;;;;;;0.70;0.32;;;;;;;20.25;100.00;100766.44;7395006;19;20014;-56
2022/11/12 02:47:03;;;;;;;1.50;0.88;;;;;;;19.94;100.00;100764.75;7393496;19;20471;-55
2022/11/12 02:49:48;;;;;;;5.68;0.45;;;;;;;19.84;100.00;100759.91;7393002;19;20010;-55
2022/11/12 02:52:33;;;;;;;0.47;0.47;;;;;;;19.49;100.00;100757.66;7398388;19;20018;-55
2022/11/12 02:55:18;;;;;;;2.20;0.50;;;;;;;19.50;100.00;100754.31;7394129;19;20023;-54
2022/11/12 02:58:03;;;;;;;1.05;0.50;;;;;;;19.23;100.00;100752.22;7392759;19;20015;-55
2022/11/12 03:00:48;;;;;;;0.32;0.30;;;;;;;19.27;100.00;100758.41;7394278;19;20010;-55
2022/11/12 03:03:32;;;;;;;1.48;0.80;;;;;;;19.37;100.00;100751.22;7395600;19;20021;-55
2022/11/12 03:06:17;;;;;;;3.10;0.73;;;;;;;19.27;100.00;100749.94;7393271;19;20015;-55
2022/11/12 03:09:02;;;;;;;3.70;1.00;;;;;;;19.26;100.00;100759.69;7393100;19;20039;-55
2022/11/12 03:11:47;;;;;;;0.30;0.20;;;;;;;19.22;100.00;100755.56;7396747;19;20010;-55
2022/11/12 03:14:31;;;;;;;1.35;0.50;;;;;;;19.03;100.00;100758.16;7390370;19;20468;-55
2022/11/12 03:17:16;;;;;;;0.40;0.38;;;;;;;19.11;100.00;100767.63;7390407;19;20014;-54
2022/11/12 03:20:01;;;;;;;1.20;0.50;;;;;;;19.17;100.00;100759.94;7398331;19;20397;-55
2022/11/12 03:22:59;;;;;;;1.20;1.00;;;;;;;19.40;100.00;100761.50;7397946;19;20739;-54
2022/11/12 03:25:43;;;;;;;1.05;0.50;;;;;;;19.45;100.00;100766.38;7392671;19;20467;-55
2022/11/12 03:28:28;;;;;;;1.13;0.40;;;;;;;19.55;100.00;100766.88;7391339;19;20070;-55
2022/11/12 03:31:12;;;;;;;0.95;0.43;;;;;;;19.89;100.00;100762.69;7395214;19;20015;-55
2022/11/12 03:33:57;;;;;;;1.38;0.63;;;;;;;19.77;100.00;100754.78;7396093;19;20103;-55
2022/11/12 03:36:42;;;;;;;2.92;1.02;;;;;;;20.34;100.00;100758.44;7392231;19;20007;-55
2022/11/12 03:39:26;;;;;;;2.25;0.75;;;;;;;20.34;100.00;100757.66;7393106;19;20022;-55
2022/11/12 03:42:11;;;;;;;3.80;0.40;;;;;;;20.33;100.00;100750.50;7396547;19;20015;-55
2022/11/12 03:44:55;;;;;;;1.30;0.73;;;;;;;20.53;100.00;100746.53;7394916;19;20360;-55
2022/11/12 03:47:45;;;;;;;0.90;0.40;;;;;;;20.48;100.00;100745.25;7392732;19;20078;-54
2022/11/12 03:50:29;;;;;;;0.77;0.52;;;;;;;20.30;100.00;100740.19;7393524;19;20329;-55
2022/11/12 03:53:14;;;;;;;1.23;0.80;;;;;;;20.47;100.00;100738.06;7391687;19;20010;-54
2022/11/12 03:55:59;;;;;;;1.10;0.35;;;;;;;20.25;100.00;100743.81;7391801;19;20011;-55
2022/11/12 03:58:43;;;;;;;0.57;0.40;;;;;;;20.24;100.00;100739.47;7390473;19;20018;-55
2022/11/12 04:01:28;;;;;;;1.85;0.63;;;;;;;20.31;100.00;100738.94;7394804;19;20492;-55
2022/11/12 04:04:12;;;;;;;4.85;0.75;;;;;;;20.38;100.00;100741.97;7394787;19;20023;-55
2022/11/12 04:10:01;;;;;;;1.80;1.13;;;;;;;20.02;100.00;100736.69;7391674;19;20090;-54
2022/11/12 04:21:49;;;;;;;0.30;0.25;;;;;;;20.17;100.00;100731.50;7390718;19;20557;-55
2022/11/12 04:22:07;;;;;;;0.95;0.20;;;;;;;20.16;100.00;100729.97;7394342;19;20328;-55
2022/11/12 04:27:55;;;;;;;2.78;0.75;;;;;;;19.65;100.00;100718.06;7389045;19;20014;-55
2022/11/12 04:30:39;;;;;;;2.60;0.63;;;;;;;19.38;100.00;100732.22;7392793;19;20019;-56
2022/11/12 04:33:24;;;;;;;0.32;0.32;;;;;;;19.37;100.00;100733.50;7392962;19;20027;-55
2022/11/12 04:36:09;;;;;;;13.55;1.75;;;;;;;19.36;100.00;100729.91;7390253;19;20581;-55
2022/11/12 04:38:53;;;;;;;1.30;0.30;;;;;;;18.73;100.00;100720.38;7389324;19;20026;-54
2022/11/12 04:47:45;;;;;;;0.47;0.47;;;;;;;18.76;100.00;100733.47;7390340;19;20010;-56
2022/11/12 04:50:30;;;;;;;0.90;0.28;;;;;;;18.48;100.00;100732.63;7391435;19;20011;-55
2022/11/12 04:53:15;;;;;;;0.52;0.40;;;;;;;18.54;100.00;100739.84;7390822;19;20491;-55
2022/11/12 04:55:59;;;;;;;1.13;0.52;;;;;;;18.49;100.00;100737.78;7391120;19;20035;-54
2022/11/12 04:58:44;;;;;;;0.45;0.45;;;;;;;18.52;100.00;100747.25;7390280;19;20019;-55
2022/11/12 05:01:29;;;;;;;0.52;0.35;;;;;;;18.36;100.00;100743.09;7393389;19;20015;-55
2022/11/12 05:04:14;;;;;;;0.40;0.40;;;;;;;18.24;100.00;100743.53;7394530;19;20022;-55
2022/11/12 05:06:59;;;;;;;2.88;0.57;;;;;;;18.41;100.00;100744.41;7390171;19;20010;-54
2022/11/12 05:09:43;;;;;;;1.73;0.85;;;;;;;18.61;100.00;100752.69;7389544;19;20014;-55
2022/11/12 05:12:28;;;;;;;0.88;0.88;;;;;;;18.63;100.00;100750.13;7393939;19;20039;-55
2022/11/12 05:15:12;;;;;;;0.28;0.28;;;;;;;19.11;100.00;100745.03;7389639;19;20070;-55
2022/11/12 05:17:57;;;;;;;1.02;0.93;;;;;;;19.26;100.00;100751.22;7388534;19;20022;-55
2022/11/12 05:20:42;;;;;;;0.22;0.10;;;;;;;19.27;100.00;100741.47;7390863;19;20014;-54
2022/11/12 05:23:27;;;;;;;1.27;0.32;;;;;;;19.37;100.00;100734.28;7389093;19;20019;-54
2022/11/12 05:26:11;;;;;;;0.90;0.30;;;;;;;19.60;100.00;100741.44;7389350;19;20014;-55
2022/11/12 05:28:55;;;;;;;0.68;0.10;;;;;;;18.68;100.00;100738.84;7389812;19;20022;-55
2022/11/12 05:31:40;;;;;;;3.25;0.60;;;;;;;18.88;100.00;100740.69;7392555;19;20090;-55
2022/11/12 05:34:25;;;;;;;0.20;0.20;;;;;;;18.71;100.00;100751.19;7392025;19;20333;-56
2022/11/12 05:37:12;;;;;;;0.15;0.10;;;;;;;18.60;100.00;100751.16;7388396;19;20029;-57
2022/11/12 05:39:56;;;;;;;0.98;0.45;;;;;;;18.52;100.00;100759.31;7394687;19;20015;-55
2022/11/12 05:42:41;;;;;;;0.45;0.30;;;;;;;18.81;100.00;100752.47;7400588;19;20513;-55
2022/11/12 05:45:25;;;;;;;1.10;0.40;;;;;;;18.98;100.00;100764.53;7399593;19;20469;-55
2022/11/12 05:48:10;;;;;;;2.30;0.50;;;;;;;19.31;100.00;100752.50;7395964;19;20011;-55
2022/11/12 05:50:54;;;;;;;0.45;0.20;;;;;;;19.20;100.00;100741.19;7397520;19;20006;-56
2022/11/12 05:53:40;;;;;;;1.20;0.52;;;;;;;20.06;100.00;100742.84;7395755;19;20022;-55
2022/11/12 05:56:25;;;;;;;0.22;0.22;;;;;;;19.87;100.00;100741.88;7396108;19;20033;-55
2022/11/12 05:59:12;;;;;;;0.55;0.55;;;;;;;19.87;100.00;100739.06;7393032;19;20010;-55
2022/11/12 06:01:56;;;;;;;1.75;0.20;;;;;;;20.21;100.00;100743.31;7399839;19;20043;-56
2022/11/12 06:04:41;;;;;;;0.90;0.52;;;;;;;20.14;100.00;100738.94;7400198;19;20015;-55
2022/11/12 06:07:25;;;;;;;17.10;0.93;;;;;;;20.33;100.00;100730.69;7395007;19;20389;-54
2022/11/12 06:10:10;;;;;;;0.10;0.05;;;;;;;19.76;100.00;100744.75;7395294;19;20014;-55
2022/11/12 06:12:55;;;;;;;1.15;0.32;;;;;;;19.83;100.00;100735.72;7394507;19;20017;-55
2022/11/12 06:15:40;;;;;;;1.45;0.52;;;;;;;19.74;100.00;100738.84;7394618;19;20010;-55
2022/11/12 06:18:24;;;;;;;0.77;0.32;;;;;;;19.16;100.00;100735.81;7393121;19;20011;-55
2022/11/12 06:21:21;;;;;;;0.82;0.40;;;;;;;19.19;100.00;100734.78;7396986;19;20472;-55
2022/11/12 06:24:06;;;;;;;1.48;0.70;;;;;;;19.36;100.00;100744.03;7395759;19;20028;-54
2022/11/12 06:26:51;;;;;;;0.20;0.15;;;;;;;19.22;100.00;100738.63;7396265;19;20050;-54
2022/11/12 06:29:37;;;;;;;3.85;0.52;;;;;;;19.75;100.00;100751.69;7395310;19;20015;-55
2022/11/12 06:32:25;;;;;;;1.20;0.43;;;;;;;19.58;100.00;100751.72;7399327;19;20481;-56
2022/11/12 06:35:10;;;;;;;0.13;0.13;;;;;;;19.63;100.00;100754.53;7394181;19;20010;-56
2022/11/12 06:37:55;;;;;;;1.75;0.47;;;;;;;20.32;100.00;100744.06;7392920;19;20019;-56
2022/11/12 06:40:40;;;;;;;7.93;0.63;;;;;;;20.48;100.00;100748.09;7395181;19;20010;-61
2022/11/12 06:43:27;;;;;;;0.93;0.30;;;;;;;19.92;100.00;100756.03;7394325;19;20018;-56
2022/11/12 06:46:16;;;;;;;0.95;0.43;;;;;;;19.70;100.00;100753.25;7398865;19;20019;-56
2022/11/12 06:49:01;;;;;;;0.43;0.25;;;;;;;19.67;100.00;100757.88;7394235;19;20031;-56
2022/11/12 06:51:49;;;;;;;0.10;0.10;;;;;;;19.54;100.00;100763.28;7395921;19;20345;-55
2022/11/12 06:54:34;;;;;;;0.75;0.40;;;;;;;19.76;100.00;100767.34;7395050;19;20010;-55
2022/11/12 06:57:19;;;;;;;0.85;0.10;;;;;;;19.85;100.00;100769.91;7396037;19;20007;-55
2022/11/12 07:00:05;;;;;;;2.58;0.80;;;;;;;19.59;100.00;100768.16;7393705;19;20006;-56
2022/11/12 07:02:50;;;;;;;0.95;0.30;;;;;;;20.03;100.00;100758.78;7395646;19;20569;-55
2022/11/12 07:05:38;;;;;;;1.75;0.30;;;;;;;19.97;100.00;100757.25;7394314;19;20019;-55
2022/11/12 07:08:23;;;;;;;2.00;0.30;;;;;;;19.89;100.00;100747.78;7394134;19;20015;-55
2022/11/12 07:11:08;;;;;;;0.25;0.25;;;;;;;19.60;100.00;100746.31;7396266;19;20491;-55
2022/11/12 07:13:53;;;;;;;0.88;0.68;;;;;;;20.34;100.00;100741.47;7392341;19;20015;-55
2022/11/12 07:16:37;;;;;;;0.47;0.38;;;;;;;20.76;100.00;100737.38;7393684;19;20021;-55
2022/11/12 07:19:22;;;;;;;1.02;0.50;;;;;;;21.41;100.00;100733.78;7390957;19;20035;-56
2022/11/12 07:22:06;;;;;;;2.10;0.45;;;;;;;21.48;99.23;100738.88;7396291;19;20030;-56
2022/11/12 07:24:51;;;;;;;0.60;0.30;;;;;;;21.34;99.22;100737.19;7393004;19;20014;-56
2022/11/12 07:27:36;;;;;;;0.10;0.00;;;;;;;20.84;100.00;100744.00;7395241;19;20018;-55
2022/11/12 07:30:20;;;;;;;0.30;0.20;;;;;;;21.05;99.93;100742.31;7393254;19;20127;-55
2022/11/12 07:33:05;;;;;;;0.10;0.10;;;;;;;21.07;100.00;100747.47;7394147;19;20091;-56
2022/11/12 07:36:04;;;;;;;1.35;0.40;;;;;;;20.63;100.00;100740.03;7393414;19;20014;-55
2022/11/12 07:38:53;;;;;;;1.08;0.30;;;;;;;20.54;100.00;100743.16;7391059;19;20021;-55
2022/11/12 07:41:38;;;;;;;0.52;0.52;;;;;;;20.85;100.00;100739.88;7394889;19;20026;-56
2022/11/12 07:44:22;;;;;;;2.25;0.30;;;;;;;20.83;100.00;100733.97;7393842;19;20078;-55
2022/11/12 07:47:07;;;;;;;0.73;0.40;;;;;;;20.38;100.00;100746.84;7392111;19;20462;-55
2022/11/12 07:49:51;;;;;;;0.30;0.20;;;;;;;20.51;100.00;100744.19;7391111;19;20022;-55
2022/11/12 07:52:36;;;;;;;0.20;0.10;;;;;;;20.42;100.00;100742.44;7396393;19;20017;-55
2022/11/12 07:55:20;;;;;;;2.10;0.50;;;;;;;20.57;100.00;100736.47;7392298;19;20062;-55
2022/11/12 07:58:05;;;;;;;0.30;0.20;;;;;;;21.10;100.00;100744.34;7391627;19;20022;-55
2022/11/12 08:00:50;;;;;;;0.70;0.10;;;;;;;21.37;98.73;100744.63;7397095;19;20019;-56
2022/11/12 08:03:36;;;;;;;0.10;0.10;;;;;;;21.52;97.56;100740.13;7391245;19;20011;-55
2022/11/12 08:06:20;;;;;;;3.70;0.30;;;;;;;21.41;98.15;100750.78;7394924;19;20010;-55
2022/11/12 08:09:07;;;;;;;1.55;0.50;;;;;;;21.60;96.52;100743.91;7393944;19;20006;-54
2022/11/12 08:11:53;;;;;;;0.73;0.65;;;;;;;21.68;96.73;100747.66;7393830;19;20037;-54
2022/11/12 08:14:37;;;;;;;0.57;0.45;;;;;;;21.66;96.47;100732.47;7393600;19;20022;-54
2022/11/12 08:17:22;;;;;;;0.22;0.13;;;;;;;21.53;96.50;100741.63;7393097;19;20014;-55
2022/11/12 08:20:07;;;;;;;1.58;0.30;;;;;;;21.57;96.09;100752.69;7392929;19;20002;-54
2022/11/12 08:22:52;;;;;;;2.75;0.40;;;;;;;21.64;95.73;100752.09;7393466;19;20554;-54
2022/11/12 08:25:36;;;;;;;0.10;0.10;;;;;;;21.67;95.99;100753.88;7393580;19;20321;-55
2022/11/12 08:28:21;;;;;;;0.57;0.57;;;;;;;21.69;95.57;100759.78;7394825;19;20098;-56
2022/11/12 08:31:14;;;;;;;0.30;0.20;;;;;;;21.52;96.37;100762.03;7391646;19;20010;-56
2022/11/12 08:34:10;;;;;;;0.50;0.15;;;;;;;21.75;95.81;100757.66;7392845;19;20329;-56
2022/11/12 08:36:55;;;;;;;0.90;0.35;;;;;;;21.89;94.84;100757.25;7388757;19;20491;-56
2022/11/12 08:39:40;;;;;;;1.50;0.20;;;;;;;21.85;94.92;100761.72;7390343;19;20010;-55
2022/11/12 08:42:24;;;;;;;0.93;0.30;;;;;;;21.50;94.98;100771.06;7394779;19;20018;-55
2022/11/12 08:45:09;;;;;;;2.17;0.38;;;;;;;21.46;95.28;100764.16;7393645;19;20070;-55
2022/11/12 08:48:02;;;;;;;3.60;0.47;;;;;;;21.16;95.31;100766.22;7389946;19;20010;-54
2022/11/12 08:50:47;;;;;;;2.95;0.50;;;;;;;21.36;95.74;100760.88;7392262;19;20018;-56
2022/11/12 08:53:32;;;;;;;3.95;0.55;;;;;;;21.38;95.29;100757.50;7389456;19;20019;-55
2022/11/12 08:56:17;;;;;;;1.27;0.30;;;;;;;21.47;95.46;100743.00;7388521;19;20011;-53
2022/11/12 08:59:02;;;;;;;5.20;0.32;;;;;;;21.42;94.67;100752.34;7388661;19;20459;-52
2022/11/12 09:01:46;;;;;;;3.03;0.55;;;;;;;21.04;95.30;100745.69;7392254;19;20341;-54
2022/11/12 09:04:31;;;;;;;0.65;0.28;;;;;;;20.95;96.80;100748.81;7394061;19;20014;-52
2022/11/12 09:07:16;;;;;;;0.65;0.65;;;;;;;21.13;96.43;100745.38;7387759;19;20019;-52
2022/11/12 09:10:00;;;;;;;1.83;0.98;;;;;;;21.27;95.88;100740.63;7388312;19;20011;-52
2022/11/12 09:12:50;;;;;;;0.50;0.13;;;;;;;21.62;95.35;100734.84;7392563;19;20011;-53
2022/11/12 09:15:34;;;;;;;0.57;0.22;;;;;;;21.64;95.11;100738.69;7392239;19;20511;-52
2022/11/12 09:18:19;;;;;;;0.50;0.32;;;;;;;21.81;94.64;100738.50;7391608;19;20015;-52
2022/11/12 09:21:07;;;;;;;3.33;0.45;;;;;;;21.63;94.70;100744.91;7392172;19;20018;-52
2022/11/12 09:23:52;;;;;;;0.40;0.15;;;;;;;21.76;94.94;100757.16;7391282;19;20070;-52
2022/11/12 09:26:36;;;;;;;0.52;0.38;;;;;;;21.86;93.82;100747.00;7391307;19;20002;-52
2022/11/12 09:29:21;;;;;;;4.70;0.47;;;;;;;21.88;93.48;100743.63;7391786;19;20011;-52
2022/11/12 09:32:05;;;;;;;0.22;0.00;;;;;;;21.76;94.62;100750.69;7391912;19;20011;-52
2022/11/12 09:34:50;;;;;;;0.10;0.10;;;;;;;22.14;94.05;100743.84;7393270;19;20018;-53
2022/11/12 09:37:38;;;;;;;0.13;0.10;;;;;;;22.40;93.40;100738.34;7392392;19;20321;-52
2022/11/12 09:40:36;;;;;;;0.55;0.30;;;;;;;22.63;91.38;100745.25;7391586;19;20018;-53
2022/11/12 09:43:23;;;;;;;0.63;0.38;;;;;;;22.32;92.41;100751.59;7391458;19;20078;-53
2022/11/12 09:46:27;;;;;;;1.42;0.57;;;;;;;22.02;92.74;100759.47;7391342;19;20435;-53
2022/11/12 09:49:20;;;;;;;3.90;1.25;;;;;;;22.45;91.74;100762.28;7391750;19;20007;-53
2022/11/12 09:52:13;;;;;;;3.72;1.02;;;;;;;22.24;91.89;100770.53;7390936;19;20467;-53
2022/11/12 09:55:32;;;;;;;0.77;0.52;;;;;;;22.32;92.29;100771.47;7387559;19;20014;-53
2022/11/12 09:58:18;;;;;;;0.47;0.30;;;;;;;22.32;92.14;100771.47;7390562;19;20002;-53
2022/11/12 10:01:31;;;;;;;3.55;1.73;;;;;;;21.96;93.30;100772.91;7391101;19;20014;-52
2022/11/12 10:04:38;;;;;;;2.03;0.20;;;;;;;22.00;93.68;100786.81;7389987;19;20010;-54
2022/11/12 10:07:49;;;;;;;2.95;1.15;;;;;;;21.93;94.60;100791.03;7387399;19;20015;-52
2022/11/12 10:10:36;;;;;;;4.00;0.98;;;;;;;21.96;93.83;100777.84;7389385;19;20014;-53
2022/11/12 10:13:21;;;;;;;1.65;0.95;;;;;;;21.91;94.47;100781.50;7388120;19;20019;-53
2022/11/12 10:19:37;;;;;;;1.42;0.50;;;;;;;21.78;94.77;100782.13;7386579;19;20007;-54
2022/11/12 10:22:31;;;;;;;1.35;0.93;;;;;;;21.54;94.86;100785.72;7391311;19;20094;-54
2022/11/12 10:25:18;;;;;;;3.15;1.15;;;;;;;21.44;95.05;100783.75;7388741;19;20491;-54
2022/11/12 10:28:27;;;;;;;2.28;0.75;;;;;;;21.40;95.48;100795.34;7394773;19;20056;-54
2022/11/12 10:31:18;;;;;;;1.95;0.80;;;;;;;21.43;96.17;100797.16;7396495;19;20018;-53
2022/11/12 10:34:18;;;;;;;2.83;0.98;;;;;;;21.49;96.19;100794.25;7397349;19;20011;-53
2022/11/12 10:37:12;;;;;;;2.63;1.70;;;;;;;21.35;97.00;100809.59;7393954;19;20010;-53
2022/11/12 10:39:57;;;;;;;6.32;1.02;;;;;;;21.81;96.69;100800.91;7394024;19;20554;-53
2022/11/12 10:43:03;;;;;;;3.60;0.73;;;;;;;21.77;96.17;100801.19;7398690;19;20010;-53
2022/11/12 10:45:49;;;;;;;4.95;0.98;;;;;;;21.77;96.23;100800.44;7399577;19;20014;-53
2022/11/12 10:48:33;;;;;;;5.75;1.25;;;;;;;21.75;95.29;100791.69;7394939;19;20341;-54
2022/11/12 10:51:25;;;;;;;3.55;0.82;;;;;;;21.67;95.48;100791.50;7396790;19;20019;-53
2022/11/12 10:54:28;;;;;;;2.45;1.30;;;;;;;21.65;95.49;100782.78;7394011;19;20011;-53
2022/11/12 10:57:25;;;;;;;3.30;1.48;;;;;;;21.53;96.52;100789.06;7393239;19;20093;-53
2022/11/12 11:00:13;;;;;;;0.95;0.52;;;;;;;21.54;97.60;100787.78;7394103;19;20070;-53
2022/11/12 11:03:00;;;;;;;3.72;1.15;;;;;;;21.85;96.60;100785.16;7394982;19;20014;-53
2022/11/12 11:05:48;;;;;;;3.60;0.57;;;;;;;21.81;95.91;100783.88;7392673;19;20082;-53
2022/11/12 11:08:39;;;;;;;5.82;1.70;;;;;;;21.95;95.44;100770.63;7393725;19;20014;-53
2022/11/12 11:11:30;;;;;;;8.02;2.08;;;;;;;22.13;94.65;100764.22;7396141;19;20011;-53
2022/11/12 11:14:21;;;;;;;2.03;0.73;;;;;;;21.99;94.91;100766.19;7394471;19;20058;-53
2022/11/12 11:17:16;;;;;;;4.78;1.23;;;;;;;22.29;95.10;100761.19;7393435;19;20014;-53
2022/11/12 11:20:02;;;;;;;6.65;1.58;;;;;;;22.56;93.59;100762.91;7393472;19;20018;-53
2022/11/12 11:23:02;;;;;;;8.07;1.33;;;;;;;22.67;93.20;100758.41;7397378;19;20074;-53
2022/11/12 11:25:51;;;;;;;2.33;0.55;;;;;;;22.59;93.58;100747.63;7392316;19;20066;-54
2022/11/12 11:28:46;;;;;;;2.15;0.98;;;;;;;22.63;93.45;100741.69;7392393;19;20015;-54
2022/11/12 11:31:38;;;;;;;3.30;1.25;;;;;;;22.69;92.91;100733.84;7395290;19;20006;-53
2022/11/12 11:34:47;;;;;;;2.45;1.75;;;;;;;22.19;94.59;100728.03;7396354;19;20362;-55
2022/11/12 11:37:58;;;;;;;3.03;1.95;;;;;;;22.35;93.86;100729.91;7391640;19;20011;-53
2022/11/12 11:41:00;;;;;;;2.42;1.23;;;;;;;22.21;93.11;100714.09;7392417;19;20010;-54
2022/11/12 11:44:04;;;;;;;2.45;1.08;;;;;;;22.17;93.97;100720.06;7393152;19;20014;-54
2022/11/12 11:47:14;;;;;;;3.22;0.60;;;;;;;22.09;94.02;100730.47;7390550;19;20015;-53
2022/11/12 11:50:05;;;;;;;2.03;0.93;;;;;;;22.19;94.36;100723.13;7392918;19;20019;-54
2022/11/12 11:53:31;;;;;;;3.38;1.52;;;;;;;21.80;95.39;100732.09;7391150;19;20018;-54
2022/11/12 11:56:24;;;;;;;3.35;0.68;;;;;;;21.89;96.35;100711.88;7390418;19;20015;-54
2022/11/12 11:59:37;;;;;;;3.22;1.17;;;;;;;22.32;94.61;100714.72;7390114;19;20011;-54
2022/11/12 12:02:51;;;;;;;2.72;0.93;;;;;;;22.26;94.10;100711.16;7396559;19;20432;-54
2022/11/12 12:06:12;;;;;;;3.55;0.73;;;;;;;21.96;95.41;100702.00;7390548;19;20006;-54
2022/11/12 12:09:30;;;;;;;4.28;1.05;;;;;;;21.96;96.07;100693.50;7391278;19;20471;-54
2022/11/12 12:12:29;;;;;;;3.08;1.25;;;;;;;21.91;96.12;100685.84;7396171;19;20131;-55
2022/11/12 12:15:24;;;;;;;1.75;0.47;;;;;;;22.25;95.39;100691.84;7391721;19;20479;-54
2022/11/12 12:18:33;;;;;;;4.05;1.42;;;;;;;22.44;95.37;100686.91;7390936;19;20011;-53
2022/11/12 12:21:20;;;;;;;4.88;1.10;;;;;;;22.88;93.66;100688.34;7393685;19;20755;-53
2022/11/12 12:24:18;;;;;;;2.38;1.05;;;;;;;23.04;93.50;100678.78;7390973;19;20018;-53
2022/11/12 12:27:08;;;;;;;5.55;0.65;;;;;;;23.05;92.81;100666.09;7388385;19;20006;-53
2022/11/12 12:30:21;;;;;;;3.58;0.98;;;;;;;22.93;92.56;100661.94;7391013;19;20018;-54
2022/11/12 12:33:15;;;;;;;1.55;0.50;;;;;;;23.12;92.37;100668.31;7392926;19;20011;-54
2022/11/12 12:36:08;;;;;;;1.67;0.75;;;;;;;23.28;91.79;100650.94;7390377;19;20662;-54
2022/11/12 12:39:23;;;;;;;3.83;1.23;;;;;;;22.98;92.19;100663.88;7389095;19;20468;-54
2022/11/12 12:42:19;;;;;;;3.85;1.17;;;;;;;22.95;92.32;100665.75;7394765;19;20018;-53
2022/11/12 12:45:37;;;;;;;3.08;1.33;;;;;;;23.43;92.00;100663.91;7392994;19;20074;-54
2022/11/12 12:48:31;;;;;;;1.58;0.80;;;;;;;23.30;91.49;100665.38;7389320;19;20015;-54
2022/11/12 12:51:17;;;;;;;3.08;1.27;;;;;;;23.68;90.38;100660.28;7392138;19;20070;-54
2022/11/12 12:54:01;;;;;;;0.93;0.43;;;;;;;23.44;90.88;100651.19;7389553;19;20007;-54
2022/11/12 12:56:47;;;;;;;3.20;0.73;;;;;;;23.33;90.88;100646.50;7390142;19;20014;-55
2022/11/12 12:59:32;;;;;;;2.15;0.55;;;;;;;23.43;91.21;100639.09;7386533;19;20018;-54
2022/11/12 13:02:22;;;;;;;6.05;1.00;;;;;;;23.47;91.17;100638.75;7393836;19;20011;-54
2022/11/12 13:05:23;;;;;;;8.30;1.53;;;;;;;23.46;91.86;100643.66;7390442;19;20353;-54
2022/11/12 13:08:12;;;;;;;5.85;1.75;;;;;;;23.39;91.89;100641.47;7389804;19;20408;-54
2022/11/12 13:10:58;;;;;;;5.00;1.80;;;;;;;23.44;91.76;100637.75;7391158;19;20131;-55
2022/11/12 13:13:43;;;;;;;2.05;0.82;;;;;;;23.00;92.92;100642.16;7390194;19;20617;-55
2022/11/12 13:16:52;;;;;;;3.22;1.20;;;;;;;22.97;93.50;100645.31;7388603;19;20006;-55
2022/11/12 13:20:07;;;;;;;1.90;1.08;;;;;;;22.95;94.00;100639.41;7387851;19;20022;-54